createdAt,value
2023-04-02T00:00:37.332Z,97.84
2023-04-02T00:03:10.263Z,97.78
2023-04-02T00:05:36.953Z,97.59
2023-04-02T00:08:18.887Z,97.66
2023-04-02T00:10:59.196Z,97.66
2023-04-02T00:13:33.154Z,97.83
2023-04-02T00:16:01.348Z,97.79
2023-04-02T00:18:28.194Z,97.48
2023-04-02T00:21:07.459Z,97.40
2023-04-02T00:23:38.566Z,97.25
2023-04-02T00:26:21.664Z,97.30
2023-04-02T00:28:48.070Z,97.26
2023-04-02T00:31:16.591Z,97.19
2023-04-02T00:33:43.889Z,96.99
2023-04-02T00:36:10.523Z,96.93
2023-04-02T00:38:38.383Z,96.81
2023-04-02T00:41:07.448Z,96.75
2023-04-02T00:43:39.222Z,96.44
2023-04-02T00:46:15.026Z,96.47
2023-04-02T00:48:44.881Z,96.26
2023-04-02T00:51:54.849Z,96.26
2023-04-02T00:54:25.622Z,96.29
2023-04-02T00:56:54.982Z,95.95
2023-04-02T00:59:35.950Z,95.84
2023-04-02T01:02:18.531Z,95.62
2023-04-02T01:05:04.106Z,95.43
2023-04-02T01:07:59.748Z,95.26
2023-04-02T01:10:41.723Z,95.01
2023-04-02T01:13:31.957Z,94.88
2023-04-02T01:16:33.007Z,94.53
2023-04-02T01:19:32.501Z,94.45
2023-04-02T01:22:09.691Z,94.02
2023-04-02T01:24:39.278Z,93.86
2023-04-02T01:27:17.632Z,93.34
2023-04-02T01:29:48.510Z,93.25
2023-04-02T01:32:19.691Z,93.02
2023-04-02T01:34:47.937Z,93.23
2023-04-02T01:37:32.261Z,93.07
2023-04-02T01:40:19.979Z,92.97
2023-04-02T01:42:52.364Z,92.41
2023-04-02T01:45:22.347Z,92.02
2023-04-02T01:47:51.602Z,91.79
2023-04-02T01:50:41.665Z,91.49
2023-04-02T01:53:12.028Z,91.35
2023-04-02T01:55:39.962Z,91.46
2023-04-02T01:58:08.802Z,91.35
2023-04-02T02:00:37.323Z,91.04
2023-04-02T02:03:06.200Z,91.04
2023-04-02T02:05:33.017Z,90.67
2023-04-02T02:08:03.306Z,90.57
2023-04-02T02:10:35.679Z,90.63
2023-04-02T02:13:02.698Z,90.51
2023-04-02T02:15:33.591Z,90.60
2023-04-02T02:18:06.459Z,90.57
2023-04-02T02:20:34.995Z,90.20
2023-04-02T02:23:03.952Z,89.79
2023-04-02T02:25:34.478Z,90.10
2023-04-02T02:28:14.065Z,90.05
2023-04-02T02:30:48.062Z,89.98
2023-04-02T02:33:21.668Z,89.52
2023-04-02T02:36:03.127Z,89.62
2023-04-02T02:38:54.212Z,89.71
2023-04-02T02:41:37.847Z,89.63
2023-04-02T02:44:10.446Z,89.16
2023-04-02T02:46:53.509Z,89.14
2023-04-02T02:49:26.614Z,89.06
2023-04-02T02:52:03.572Z,88.85
2023-04-02T02:54:32.518Z,89.19
2023-04-02T02:57:05.517Z,89.06
2023-04-02T02:59:32.289Z,88.89
2023-04-02T03:02:01.742Z,89.19
2023-04-02T03:04:30.787Z,88.70
2023-04-02T03:06:58.183Z,89.01
2023-04-02T03:09:54.792Z,88.69
2023-04-02T03:12:30.728Z,88.89
2023-04-02T03:15:22.448Z,88.82
2023-04-02T03:17:53.244Z,88.67
2023-04-02T03:20:34.855Z,88.49
2023-04-02T03:23:11.114Z,88.76
2023-04-02T03:25:55.208Z,88.56
2023-04-02T03:28:30.825Z,88.62
2023-04-02T03:31:08.738Z,88.74
2023-04-02T03:33:43.966Z,88.64
2023-04-02T03:36:30.363Z,88.68
2023-04-02T03:39:11.227Z,89.06
2023-04-02T03:41:45.249Z,88.74
2023-04-02T03:44:21.494Z,88.74
2023-04-02T03:46:57.350Z,88.36
2023-04-02T03:49:33.119Z,88.69
2023-04-02T03:52:03.505Z,88.84
2023-04-02T03:54:32.197Z,89.04
2023-04-02T03:56:59.771Z,88.95
2023-04-02T03:59:52.020Z,88.74
2023-04-02T04:02:44.149Z,88.80
2023-04-02T04:05:26.530Z,88.74
2023-04-02T04:07:56.997Z,88.76
2023-04-02T04:10:28.002Z,88.25
2023-04-02T04:13:01.939Z,88.62
2023-04-02T04:16:02.972Z,88.14
2023-04-02T04:18:53.038Z,88.61
2023-04-02T04:21:31.448Z,88.04
2023-04-02T04:24:05.915Z,87.73
2023-04-02T04:26:44.380Z,87.67
2023-04-02T04:29:26.291Z,87.60
2023-04-02T04:31:55.578Z,87.73
2023-04-02T04:34:29.973Z,87.78
2023-04-02T04:37:02.066Z,88.25
2023-04-02T04:39:54.767Z,88.26
2023-04-02T04:42:27.205Z,88.02
2023-04-02T04:45:03.021Z,87.91
2023-04-02T04:47:34.072Z,87.58
2023-04-02T04:50:14.158Z,87.96
2023-04-02T04:52:48.028Z,87.89
2023-04-02T04:55:24.505Z,87.71
2023-04-02T04:57:55.741Z,87.43
2023-04-02T05:00:50.954Z,87.41
2023-04-02T05:03:25.315Z,87.17
2023-04-02T05:05:52.644Z,87.32
2023-04-02T05:08:28.116Z,86.90
2023-04-02T05:11:13.148Z,87.08
2023-04-02T05:13:48.817Z,87.27
2023-04-02T05:16:21.297Z,87.15
2023-04-02T05:18:56.507Z,87.51
2023-04-02T05:21:40.999Z,87.09
2023-04-02T05:24:44.176Z,86.94
2023-04-02T05:27:28.518Z,86.79
2023-04-02T05:30:12.913Z,87.16
2023-04-02T05:32:45.906Z,86.67
2023-04-02T05:35:19.026Z,87.13
2023-04-02T05:37:46.630Z,87.36
2023-04-02T05:40:27.694Z,86.87
2023-04-02T05:42:55.867Z,86.64
2023-04-02T05:45:28.377Z,87.02
2023-04-02T05:48:01.506Z,86.90
2023-04-02T05:50:33.283Z,86.59
2023-04-02T05:53:17.806Z,86.98
2023-04-02T05:55:44.582Z,86.96
2023-04-02T06:01:01.517Z,87.13
2023-04-02T06:03:34.303Z,87.43
2023-04-02T06:06:06.923Z,87.48
2023-04-02T06:08:41.555Z,87.68
2023-04-02T06:11:12.409Z,87.94
2023-04-02T06:13:39.446Z,87.94
2023-04-02T06:16:06.598Z,87.73
2023-04-02T06:18:36.160Z,87.82
2023-04-02T06:21:05.068Z,87.65
2023-04-02T06:23:40.010Z,87.85
2023-04-02T06:26:22.633Z,87.56
2023-04-02T06:28:57.863Z,87.57
2023-04-02T06:32:36.108Z,87.87
2023-04-02T06:35:02.624Z,87.64
2023-04-02T06:37:36.209Z,87.54
2023-04-02T06:40:04.686Z,87.50
2023-04-02T06:42:35.688Z,87.45
2023-04-02T06:45:03.128Z,87.71
2023-04-02T06:47:35.056Z,87.40
2023-04-02T06:50:12.705Z,86.97
2023-04-02T06:52:50.188Z,86.68
2023-04-02T06:55:55.319Z,86.66
2023-04-02T06:58:21.781Z,86.84
2023-04-02T07:00:50.747Z,86.51
2023-04-02T07:03:37.615Z,86.52
2023-04-02T07:06:04.062Z,86.89
2023-04-02T07:08:30.616Z,86.68
2023-04-02T07:10:57.029Z,86.38
2023-04-02T07:13:24.570Z,86.76
2023-04-02T07:15:53.238Z,86.71
2023-04-02T07:18:29.846Z,85.33
2023-04-02T07:20:56.794Z,85.89
2023-04-02T07:23:23.479Z,85.70
2023-04-02T07:25:55.102Z,85.31
2023-04-02T07:28:22.946Z,85.27
2023-04-02T07:30:50.027Z,85.00
2023-04-02T07:33:19.269Z,84.70
2023-04-02T07:35:46.523Z,84.82
2023-04-02T07:38:13.074Z,84.62
2023-04-02T07:40:39.740Z,84.39
2023-04-02T07:43:06.741Z,84.77
2023-04-02T07:45:33.370Z,84.55
2023-04-02T07:48:12.337Z,84.25
2023-04-02T07:50:39.222Z,84.06
2023-04-02T07:53:06.975Z,84.18
2023-04-02T07:55:33.796Z,83.39
2023-04-02T07:58:00.397Z,83.63
2023-04-02T08:00:28.556Z,83.90
2023-04-02T08:02:55.256Z,83.55
2023-04-02T08:05:22.506Z,84.45
2023-04-02T08:07:56.691Z,83.34
2023-04-02T08:10:24.743Z,83.30
2023-04-02T08:12:51.721Z,83.48
2023-04-02T08:15:18.879Z,83.14
2023-04-02T08:17:46.490Z,83.39
2023-04-02T08:20:18.137Z,83.50
2023-04-02T08:22:45.704Z,83.34
2023-04-02T08:25:12.365Z,83.13
2023-04-02T08:27:39.182Z,82.89
2023-04-02T08:30:08.765Z,82.69
2023-04-02T08:32:35.633Z,82.51
2023-04-02T08:35:02.632Z,82.15
2023-04-02T08:37:29.188Z,82.59
2023-04-02T08:39:55.758Z,82.09
2023-04-02T08:42:32.674Z,82.41
2023-04-02T08:45:24.888Z,81.89
2023-04-02T08:47:55.833Z,82.09
2023-04-02T08:50:36.453Z,81.87
2023-04-02T08:53:07.543Z,81.84
2023-04-02T08:55:48.480Z,81.62
2023-04-02T08:58:27.868Z,81.13
2023-04-02T09:00:55.795Z,81.29
2023-04-02T09:03:34.439Z,81.36
2023-04-02T09:06:02.425Z,80.61
2023-04-02T09:08:33.350Z,80.20
2023-04-02T09:11:03.278Z,80.41
2023-04-02T09:13:32.844Z,79.85
2023-04-02T09:16:10.896Z,79.50
2023-04-02T09:18:38.853Z,80.13
2023-04-02T09:21:34.509Z,80.04
2023-04-02T09:24:01.900Z,79.89
2023-04-02T09:26:32.012Z,79.57
2023-04-02T09:29:40.139Z,78.84
2023-04-02T09:32:12.393Z,78.73
2023-04-02T09:34:40.172Z,78.55
2023-04-02T09:37:29.347Z,79.11
2023-04-02T09:40:15.833Z,79.27
2023-04-02T09:42:42.384Z,79.66
2023-04-02T09:45:23.506Z,79.16
2023-04-02T09:47:58.875Z,79.92
2023-04-02T09:50:28.107Z,79.43
2023-04-02T09:52:54.504Z,79.12
2023-04-02T09:55:28.823Z,79.36
2023-04-02T09:58:16.037Z,80.00
2023-04-02T10:01:00.732Z,79.37
2023-04-02T10:03:31.466Z,78.79
2023-04-02T10:06:15.807Z,78.97
2023-04-02T10:08:45.056Z,78.49
2023-04-02T10:11:20.012Z,77.87
2023-04-02T10:13:54.535Z,78.01
2023-04-02T10:16:34.677Z,77.69
2023-04-02T10:19:13.216Z,77.67
2023-04-02T10:21:42.218Z,77.35
2023-04-02T10:24:14.397Z,76.92
2023-04-02T10:27:06.802Z,76.53
2023-04-02T10:29:49.372Z,77.33
2023-04-02T10:32:24.979Z,76.47
2023-04-02T10:35:15.991Z,76.31
2023-04-02T10:38:24.184Z,76.40
2023-04-02T10:41:07.155Z,75.30
2023-04-02T10:43:57.851Z,75.59
2023-04-02T10:46:45.442Z,75.66
2023-04-02T10:49:49.335Z,75.57
2023-04-02T10:52:21.536Z,74.92
2023-04-02T10:54:51.636Z,75.21
2023-04-02T10:57:40.499Z,74.37
2023-04-02T11:00:15.847Z,75.30
2023-04-02T11:02:51.126Z,73.55
2023-04-02T11:05:50.209Z,73.77
2023-04-02T11:08:42.204Z,73.76
2023-04-02T11:11:18.993Z,73.26
2023-04-02T11:14:23.224Z,72.85
2023-04-02T11:16:51.091Z,73.49
2023-04-02T11:19:17.425Z,74.67
2023-04-02T11:21:59.854Z,74.35
2023-04-02T11:24:31.701Z,74.83
2023-04-02T11:27:05.580Z,75.01
2023-04-02T11:29:33.456Z,74.88
2023-04-02T11:32:12.119Z,74.39
2023-04-02T11:34:41.652Z,73.76
2023-04-02T11:37:10.981Z,73.63
2023-04-02T11:39:51.030Z,73.48
2023-04-02T11:42:32.636Z,72.49
2023-04-02T11:45:20.884Z,71.94
2023-04-02T11:47:59.968Z,72.71
2023-04-02T11:50:40.835Z,72.41
2023-04-02T11:53:10.451Z,72.57
2023-04-02T11:56:18.939Z,72.54
2023-04-02T11:59:13.013Z,72.27
2023-04-02T12:01:59.616Z,71.64
2023-04-02T12:04:29.039Z,71.52
2023-04-02T12:06:55.384Z,71.98
2023-04-02T12:09:24.764Z,72.20
2023-04-02T12:12:15.578Z,72.31
2023-04-02T12:14:45.551Z,72.73
2023-04-02T12:17:30.811Z,72.53
2023-04-02T12:20:01.644Z,73.00
2023-04-02T12:22:32.282Z,72.81
2023-04-02T12:25:21.212Z,71.44
2023-04-02T12:27:48.059Z,71.29
2023-04-02T12:30:17.762Z,71.38
2023-04-02T12:32:44.377Z,72.07
2023-04-02T12:35:34.236Z,72.20
2023-04-02T12:38:01.087Z,71.37
2023-04-02T12:40:27.945Z,70.94
2023-04-02T12:42:54.366Z,70.86
2023-04-02T12:45:35.775Z,71.73
2023-04-02T12:48:12.203Z,71.71
2023-04-02T12:50:41.602Z,71.42
2023-04-02T12:53:23.902Z,71.29
2023-04-02T12:55:52.234Z,70.33
2023-04-02T12:58:39.722Z,70.11
2023-04-02T13:01:31.664Z,70.40
2023-04-02T13:04:06.511Z,70.19
2023-04-02T13:06:34.948Z,69.90
2023-04-02T13:09:05.556Z,69.55
2023-04-02T13:11:38.898Z,69.41
2023-04-02T13:14:07.943Z,69.26
2023-04-02T13:16:40.603Z,69.16
2023-04-02T13:19:48.309Z,68.24
2023-04-02T13:22:31.908Z,68.31
2023-04-02T13:24:58.363Z,68.46
2023-04-02T13:27:24.835Z,68.43
2023-04-02T13:29:51.242Z,67.80
2023-04-02T13:32:18.193Z,66.61
2023-04-02T13:34:44.617Z,67.06
2023-04-02T13:37:13.930Z,66.37
2023-04-02T13:39:40.783Z,66.73
2023-04-02T13:42:09.075Z,66.55
2023-04-02T13:44:39.804Z,67.11
2023-04-02T13:47:06.374Z,67.52
2023-04-02T13:49:32.881Z,67.70
2023-04-02T13:52:03.197Z,67.84
2023-04-02T13:54:38.657Z,67.26
2023-04-02T13:57:06.987Z,67.27
2023-04-02T13:59:33.461Z,67.26
2023-04-02T14:02:07.008Z,67.13
2023-04-02T14:04:38.166Z,67.67
2023-04-02T14:07:41.672Z,66.79
2023-04-02T14:10:33.965Z,66.16
2023-04-02T14:13:18.412Z,66.64
2023-04-02T14:16:12.796Z,66.69
2023-04-02T14:18:58.283Z,66.57
2023-04-02T14:22:03.337Z,65.84
2023-04-02T14:25:06.112Z,66.50
2023-04-02T14:27:55.931Z,67.41
2023-04-02T14:30:42.926Z,66.61
2023-04-02T14:33:32.598Z,66.50
2023-04-02T14:36:20.313Z,65.92
2023-04-02T14:39:06.955Z,66.17
2023-04-02T14:41:42.575Z,65.81
2023-04-02T14:44:13.751Z,65.13
2023-04-02T14:46:40.185Z,66.01
2023-04-02T14:49:12.835Z,65.97
2023-04-02T14:51:43.376Z,65.90
2023-04-02T14:54:29.903Z,66.18
2023-04-02T14:57:21.536Z,66.14
2023-04-02T15:00:11.710Z,65.60
2023-04-02T15:02:53.048Z,64.48
2023-04-02T15:05:28.045Z,64.15
2023-04-02T15:08:03.870Z,64.52
2023-04-02T15:11:00.955Z,64.34
2023-04-02T15:14:06.112Z,63.49
2023-04-02T15:16:33.279Z,62.37
2023-04-02T15:19:01.270Z,58.69
2023-04-02T15:21:55.942Z,57.72
2023-04-02T15:24:59.389Z,54.20
2023-04-02T15:27:32.929Z,55.65
2023-04-02T15:30:16.832Z,57.51
2023-04-02T15:32:43.912Z,58.09
2023-04-02T15:35:40.110Z,57.92
2023-04-02T15:38:15.565Z,58.71
2023-04-02T15:40:56.925Z,60.68
2023-04-02T15:43:36.873Z,60.05
2023-04-02T15:46:12.533Z,60.62
2023-04-02T15:49:00.603Z,60.74
2023-04-02T15:51:50.082Z,61.47
2023-04-02T15:54:51.821Z,61.09
2023-04-02T15:57:34.350Z,61.30
2023-04-02T16:00:22.361Z,61.04
2023-04-02T16:03:11.391Z,60.56
2023-04-02T16:05:52.253Z,60.98
2023-04-02T16:08:27.454Z,61.82
2023-04-02T16:10:53.998Z,61.62
2023-04-02T16:13:33.698Z,61.92
2023-04-02T16:16:14.006Z,61.88
2023-04-02T16:19:04.741Z,62.39
2023-04-02T16:22:01.785Z,62.69
2023-04-02T16:24:28.592Z,62.55
2023-04-02T16:27:16.535Z,62.53
2023-04-02T16:29:56.353Z,60.64
2023-04-02T16:32:52.756Z,58.45
2023-04-02T16:35:49.282Z,57.10
2023-04-02T16:38:54.040Z,56.04
2023-04-02T16:42:01.781Z,55.73
2023-04-02T16:44:50.262Z,55.07
2023-04-02T16:47:46.288Z,54.58
2023-04-02T16:50:15.708Z,53.87
2023-04-02T16:52:59.760Z,53.91
2023-04-02T16:55:37.188Z,53.85
2023-04-02T16:58:30.861Z,53.60
2023-04-02T17:01:08.646Z,54.29
2023-04-02T17:04:13.574Z,55.85
2023-04-02T17:06:55.546Z,57.51
2023-04-02T17:09:34.049Z,58.69
2023-04-02T17:12:12.970Z,59.09
2023-04-02T17:15:09.250Z,59.65
2023-04-02T17:17:38.504Z,59.70
2023-04-02T17:20:22.026Z,60.15
2023-04-02T17:22:49.081Z,60.37
2023-04-02T17:25:31.479Z,60.41
2023-04-02T17:27:58.556Z,60.92
2023-04-02T17:30:37.914Z,61.02
2023-04-02T17:33:26.634Z,60.66
2023-04-02T17:36:32.576Z,61.40
2023-04-02T17:39:14.713Z,61.44
2023-04-02T17:42:09.361Z,61.91
2023-04-02T17:44:46.686Z,61.83
2023-04-02T17:47:22.436Z,61.75
2023-04-02T17:50:26.070Z,61.62
2023-04-02T17:52:58.390Z,61.34
2023-04-02T17:58:01.170Z,61.16
2023-04-02T18:00:45.985Z,61.17
2023-04-02T18:03:39.402Z,61.56
2023-04-02T18:06:23.001Z,61.86
2023-04-02T18:09:16.502Z,61.57
2023-04-02T18:12:03.973Z,61.16
2023-04-02T18:14:49.410Z,61.11
2023-04-02T18:17:27.077Z,61.05
2023-04-02T18:20:19.581Z,61.37
2023-04-02T18:23:23.920Z,61.47
2023-04-02T18:25:58.450Z,62.01
2023-04-02T18:28:51.038Z,62.24
2023-04-02T18:31:50.044Z,62.65
2023-04-02T18:34:36.164Z,62.01
2023-04-02T18:37:29.998Z,61.69
2023-04-02T18:40:14.315Z,62.10
2023-04-02T18:42:53.326Z,62.28
2023-04-02T18:45:42.159Z,62.56
2023-04-02T18:48:33.292Z,62.73
2023-04-02T18:51:01.160Z,62.55
2023-04-02T18:53:31.081Z,62.83
2023-04-02T18:56:06.270Z,62.66
2023-04-02T18:58:42.257Z,63.14
2023-04-02T19:01:11.637Z,63.49
2023-04-02T19:03:44.255Z,63.01
2023-04-02T19:06:21.175Z,63.23
2023-04-02T19:08:50.564Z,62.95
2023-04-02T19:11:29.493Z,62.70
2023-04-02T19:14:11.493Z,63.21
2023-04-02T19:16:52.551Z,62.85
2023-04-02T19:19:21.768Z,63.34
2023-04-02T19:21:51.600Z,63.80
2023-04-02T19:24:33.604Z,64.24
2023-04-02T19:27:24.906Z,64.36
2023-04-02T19:30:17.649Z,64.70
2023-04-02T19:32:50.062Z,65.54
2023-04-02T19:35:36.128Z,65.59
2023-04-02T19:38:40.306Z,66.51
2023-04-02T19:41:30.557Z,66.92
2023-04-02T19:43:57.233Z,67.19
2023-04-02T19:46:26.324Z,67.27
2023-04-02T19:49:16.885Z,67.56
2023-04-02T19:51:43.852Z,68.47
2023-04-02T19:54:10.740Z,68.43
2023-04-02T19:56:38.488Z,67.96
2023-04-02T19:59:17.108Z,67.95
2023-04-02T20:01:44.472Z,67.84
2023-04-02T20:04:11.284Z,67.53
2023-04-02T20:06:37.842Z,67.87
2023-04-02T20:09:04.296Z,68.11
2023-04-02T20:11:31.023Z,68.45
2023-04-02T20:13:58.190Z,68.19
2023-04-02T20:16:25.063Z,68.11
2023-04-02T20:18:51.508Z,68.42
2023-04-02T20:21:18.172Z,68.48
2023-04-02T20:23:44.686Z,68.41
2023-04-02T20:26:12.601Z,68.85
2023-04-02T20:28:39.721Z,68.95
2023-04-02T20:31:09.334Z,69.27
2023-04-02T20:33:36.702Z,69.60
2023-04-02T20:36:06.676Z,69.43
2023-04-02T20:38:34.880Z,69.52
2023-04-02T20:41:02.514Z,70.00
2023-04-02T20:43:29.259Z,70.26
2023-04-02T20:45:57.421Z,70.51
2023-04-02T20:48:25.803Z,70.54
2023-04-02T20:50:52.262Z,70.75
2023-04-02T20:53:19.400Z,70.79
2023-04-02T20:55:46.727Z,70.36
2023-04-02T20:58:15.804Z,70.36
2023-04-02T21:00:42.597Z,71.21
2023-04-02T21:03:10.067Z,71.80
2023-04-02T21:05:47.036Z,72.64
2023-04-02T21:08:15.000Z,73.12
2023-04-02T21:10:41.399Z,73.43
2023-04-02T21:13:07.799Z,74.00
2023-04-02T21:15:34.579Z,74.27
2023-04-02T21:18:01.343Z,73.95
2023-04-02T21:20:27.894Z,74.57
2023-04-02T21:22:54.299Z,75.30
2023-04-02T21:25:20.904Z,75.47
2023-04-02T21:27:47.415Z,75.93
2023-04-02T21:30:14.170Z,75.94
2023-04-02T21:32:40.986Z,76.22
2023-04-02T21:35:09.392Z,76.60
2023-04-02T21:37:36.506Z,76.66
2023-04-02T21:40:03.368Z,76.62
2023-04-02T21:42:30.078Z,77.05
2023-04-02T21:44:56.606Z,77.33
2023-04-02T21:47:23.674Z,77.87
2023-04-02T21:49:50.266Z,77.89
2023-04-02T21:52:16.625Z,77.87
2023-04-02T21:54:43.073Z,77.64
2023-04-02T21:57:09.465Z,77.79
2023-04-02T21:59:35.948Z,78.12
2023-04-02T22:02:02.441Z,78.63
2023-04-02T22:04:30.680Z,78.63
2023-04-02T22:06:57.475Z,79.27
2023-04-02T22:09:26.105Z,79.44
2023-04-02T22:11:55.562Z,78.25
2023-04-02T22:14:23.237Z,78.08
2023-04-02T22:16:49.834Z,77.72
2023-04-02T22:19:17.153Z,77.21
2023-04-02T22:21:43.877Z,76.93
2023-04-02T22:24:14.501Z,77.11
2023-04-02T22:26:41.912Z,77.35
2023-04-02T22:29:08.670Z,77.33
2023-04-02T22:31:35.521Z,77.83
2023-04-02T22:34:03.422Z,77.92
2023-04-02T22:36:30.374Z,78.25
2023-04-02T22:38:58.079Z,78.11
2023-04-02T22:41:27.360Z,78.96
2023-04-02T22:43:56.076Z,79.29
2023-04-02T22:46:23.286Z,79.82
2023-04-02T22:48:50.143Z,79.69
2023-04-02T22:51:19.035Z,79.95
2023-04-02T22:53:45.797Z,79.86
2023-04-02T22:56:18.218Z,80.31
2023-04-02T22:58:44.907Z,80.11
2023-04-02T23:01:24.074Z,79.94
2023-04-02T23:03:53.173Z,79.70
2023-04-02T23:06:19.997Z,79.74
2023-04-02T23:08:46.937Z,79.61
2023-04-02T23:11:18.429Z,79.27
2023-04-02T23:13:47.707Z,79.00
2023-04-02T23:16:15.354Z,78.88
2023-04-02T23:18:43.280Z,78.77
2023-04-02T23:21:10.553Z,78.95
2023-04-02T23:23:39.305Z,79.31
2023-04-02T23:26:13.564Z,79.49
2023-04-02T23:28:40.673Z,79.50
2023-04-02T23:31:10.671Z,79.56
2023-04-02T23:33:37.138Z,79.84
2023-04-02T23:36:08.534Z,79.88
2023-04-02T23:38:35.209Z,80.29
2023-04-02T23:41:01.889Z,80.52
2023-04-02T23:43:28.278Z,80.54
2023-04-02T23:45:54.834Z,80.34
2023-04-02T23:48:22.693Z,80.84
2023-04-02T23:50:49.135Z,81.28
2023-04-02T23:53:16.597Z,80.75
2023-04-02T23:55:43.630Z,80.95
